createdAt,value
2019-05-25T00:01:20.790Z,19.54
2019-05-25T00:03:48.246Z,19.55
2019-05-25T00:06:15.753Z,19.56
2019-05-25T00:08:43.268Z,19.57
2019-05-25T00:11:10.971Z,19.54
2019-05-25T00:13:38.441Z,19.52
2019-05-25T00:16:06.021Z,19.52
2019-05-25T00:18:33.587Z,19.51
2019-05-25T00:21:01.121Z,19.49
2019-05-25T00:23:28.592Z,19.48
2019-05-25T00:25:56.201Z,19.48
2019-05-25T00:28:23.778Z,19.48
2019-05-25T00:30:51.333Z,19.49
2019-05-25T00:33:18.865Z,19.48
2019-05-25T00:35:46.342Z,19.48
2019-05-25T00:38:13.914Z,19.47
2019-05-25T00:40:41.400Z,19.47
2019-05-25T00:43:08.861Z,19.46
2019-05-25T00:45:36.874Z,19.47
2019-05-25T00:48:04.343Z,19.44
2019-05-25T00:50:31.830Z,19.44
2019-05-25T00:52:59.329Z,19.45
2019-05-25T00:55:26.786Z,19.44
2019-05-25T00:57:54.319Z,19.45
2019-05-25T01:00:21.758Z,19.45
2019-05-25T01:02:49.293Z,19.44
2019-05-25T01:05:16.883Z,19.44
2019-05-25T01:07:44.378Z,19.42
2019-05-25T01:10:12.235Z,19.42
2019-05-25T01:12:39.845Z,19.41
2019-05-25T01:15:07.320Z,19.40
2019-05-25T01:17:34.809Z,19.39
2019-05-25T01:20:02.470Z,19.37
2019-05-25T01:22:29.946Z,19.37
2019-05-25T01:24:57.400Z,19.35
2019-05-25T01:27:24.972Z,19.36
2019-05-25T01:29:52.457Z,19.36
2019-05-25T01:32:19.912Z,19.33
2019-05-25T01:34:47.396Z,19.32
2019-05-25T01:37:14.879Z,19.33
2019-05-25T01:39:42.412Z,19.31
2019-05-25T01:42:09.855Z,19.30
2019-05-25T01:44:37.331Z,19.29
2019-05-25T01:47:04.841Z,19.29
2019-05-25T01:49:32.420Z,19.29
2019-05-25T01:51:59.878Z,19.29
2019-05-25T01:54:27.379Z,19.28
2019-05-25T01:56:54.873Z,19.29
2019-05-25T01:59:22.468Z,19.28
2019-05-25T02:01:49.930Z,19.27
2019-05-25T02:04:17.389Z,19.27
2019-05-25T02:06:44.886Z,19.29
2019-05-25T02:09:12.331Z,19.29
2019-05-25T02:11:39.821Z,19.28
2019-05-25T02:14:07.306Z,19.26
2019-05-25T02:16:34.916Z,19.27
2019-05-25T02:19:02.398Z,19.26
2019-05-25T02:21:29.935Z,19.26
2019-05-25T02:23:57.438Z,19.26
2019-05-25T02:26:24.938Z,19.26
2019-05-25T02:28:52.444Z,19.27
2019-05-25T02:31:19.928Z,19.26
2019-05-25T02:33:47.616Z,19.25
2019-05-25T02:36:15.080Z,19.23
2019-05-25T02:38:42.615Z,19.23
2019-05-25T02:41:10.255Z,19.23
2019-05-25T02:43:37.812Z,19.23
2019-05-25T02:46:05.383Z,19.23
2019-05-25T02:48:33.008Z,19.23
2019-05-25T02:51:00.485Z,19.22
2019-05-25T02:53:28.040Z,19.21
2019-05-25T02:55:55.542Z,19.19
2019-05-25T02:58:23.013Z,19.19
2019-05-25T03:00:50.665Z,19.19
2019-05-25T03:03:18.139Z,19.18
2019-05-25T03:05:45.853Z,19.17
2019-05-25T03:08:13.418Z,19.18
2019-05-25T03:10:40.862Z,19.17
2019-05-25T03:13:08.390Z,19.15
2019-05-25T03:15:35.931Z,19.14
2019-05-25T03:18:03.747Z,19.14
2019-05-25T03:20:31.470Z,19.13
2019-05-25T03:22:58.983Z,19.13
2019-05-25T03:25:26.453Z,19.12
2019-05-25T03:27:53.976Z,19.11
2019-05-25T03:30:30.447Z,19.11
2019-05-25T03:32:58.154Z,19.09
2019-05-25T03:35:25.673Z,19.09
2019-05-25T03:37:53.154Z,19.08
2019-05-25T03:40:20.735Z,19.07
2019-05-25T03:42:48.178Z,19.07
2019-05-25T03:45:15.661Z,19.09
2019-05-25T03:47:43.211Z,19.08
2019-05-25T03:50:10.681Z,19.08
2019-05-25T03:52:38.127Z,19.06
2019-05-25T03:55:05.926Z,19.06
2019-05-25T03:57:33.453Z,19.07
2019-05-25T04:00:00.927Z,19.07
2019-05-25T04:02:28.543Z,19.07
2019-05-25T04:04:56.257Z,19.07
2019-05-25T04:07:23.713Z,19.07
2019-05-25T04:09:51.194Z,19.05
2019-05-25T04:12:18.716Z,19.04
2019-05-25T04:14:46.283Z,19.04
2019-05-25T04:17:13.771Z,19.04
2019-05-25T04:19:41.404Z,19.05
2019-05-25T04:22:08.877Z,19.06
2019-05-25T04:24:36.396Z,19.06
2019-05-25T04:27:03.962Z,19.04
2019-05-25T04:29:32.426Z,19.05
2019-05-25T04:32:00.512Z,19.03
2019-05-25T04:34:28.109Z,19.02
2019-05-25T04:36:55.764Z,19.04
2019-05-25T04:39:23.202Z,19.03
2019-05-25T04:41:50.626Z,19.02
2019-05-25T04:44:18.112Z,19.04
2019-05-25T04:46:45.705Z,19.04
2019-05-25T04:49:13.213Z,19.03
2019-05-25T04:51:40.675Z,19.03
2019-05-25T04:54:08.298Z,19.03
2019-05-25T04:56:39.540Z,19.04
2019-05-25T04:59:05.214Z,19.03
2019-05-25T05:01:32.663Z,19.04
2019-05-25T05:04:00.335Z,19.04
2019-05-25T05:06:27.870Z,19.03
2019-05-25T05:08:55.372Z,19.03
2019-05-25T05:11:23.034Z,19.04
2019-05-25T05:13:50.597Z,19.05
2019-05-25T05:16:18.078Z,19.07
2019-05-25T05:18:45.658Z,19.08
2019-05-25T05:21:13.134Z,19.08
2019-05-25T05:23:40.655Z,19.09
2019-05-25T05:26:08.158Z,19.08
2019-05-25T05:28:35.649Z,19.09
2019-05-25T05:31:03.416Z,19.08
2019-05-25T05:33:30.934Z,19.08
2019-05-25T05:35:58.791Z,19.08
2019-05-25T05:38:26.351Z,19.08
2019-05-25T05:40:53.796Z,19.08
2019-05-25T05:43:21.305Z,19.09
2019-05-25T05:45:48.933Z,19.08
2019-05-25T05:48:16.408Z,19.09
2019-05-25T05:50:44.115Z,19.09
2019-05-25T05:53:11.614Z,19.09
2019-05-25T05:55:39.068Z,19.09
2019-05-25T05:58:06.665Z,19.09
2019-05-25T06:00:34.203Z,19.08
2019-05-25T06:03:01.668Z,19.08
2019-05-25T06:05:29.155Z,19.08
2019-05-25T06:07:56.613Z,19.07
2019-05-25T06:10:24.197Z,19.07
2019-05-25T06:12:51.747Z,19.07
2019-05-25T06:15:19.215Z,19.07
2019-05-25T06:17:46.702Z,19.09
2019-05-25T06:20:14.652Z,19.10
2019-05-25T06:22:42.259Z,19.10
2019-05-25T06:25:09.912Z,19.11
2019-05-25T06:27:37.342Z,19.13
2019-05-25T06:30:04.950Z,19.14
2019-05-25T06:32:32.395Z,19.16
2019-05-25T06:34:59.909Z,19.16
2019-05-25T06:37:27.757Z,19.17
2019-05-25T06:39:55.201Z,19.17
2019-05-25T06:42:22.707Z,19.17
2019-05-25T06:44:50.140Z,19.18
2019-05-25T06:47:17.932Z,19.20
2019-05-25T06:49:45.458Z,19.19
2019-05-25T06:52:13.025Z,19.22
2019-05-25T06:54:40.506Z,19.26
2019-05-25T06:57:07.995Z,19.28
2019-05-25T06:59:35.639Z,19.30
2019-05-25T07:02:03.164Z,19.33
2019-05-25T07:04:30.684Z,19.32
2019-05-25T07:06:58.221Z,19.35
2019-05-25T07:09:25.700Z,19.36
2019-05-25T07:11:53.180Z,19.37
2019-05-25T07:14:20.662Z,19.39
2019-05-25T07:16:48.191Z,19.39
2019-05-25T07:19:15.677Z,19.40
2019-05-25T07:21:43.255Z,19.41
2019-05-25T07:24:10.788Z,19.43
2019-05-25T07:26:38.319Z,19.44
2019-05-25T07:29:05.840Z,19.44
2019-05-25T07:31:33.380Z,19.47
2019-05-25T07:34:00.900Z,19.48
2019-05-25T07:36:28.384Z,19.51
2019-05-25T07:38:55.885Z,19.52
2019-05-25T07:41:23.489Z,19.53
2019-05-25T07:43:50.911Z,19.53
2019-05-25T07:46:18.420Z,19.54
2019-05-25T07:48:45.911Z,19.56
2019-05-25T07:51:13.400Z,19.57
2019-05-25T07:53:40.983Z,19.60
2019-05-25T07:56:08.457Z,19.62
2019-05-25T07:58:35.963Z,19.64
2019-05-25T08:01:03.546Z,19.65
2019-05-25T08:03:31.055Z,19.63
2019-05-25T08:05:58.516Z,19.64
2019-05-25T08:08:25.994Z,19.64
2019-05-25T08:10:53.466Z,19.65
2019-05-25T08:13:21.081Z,19.64
2019-05-25T08:15:48.537Z,19.65
2019-05-25T08:18:16.021Z,19.65
2019-05-25T08:20:46.619Z,19.66
2019-05-25T08:23:12.883Z,19.68
2019-05-25T08:25:40.379Z,19.71
2019-05-25T08:28:07.921Z,19.74
2019-05-25T08:30:35.414Z,19.75
2019-05-25T08:33:02.997Z,19.77
2019-05-25T08:35:30.522Z,19.80
2019-05-25T08:37:58.159Z,19.82
2019-05-25T08:40:25.630Z,19.84
2019-05-25T08:42:53.149Z,19.85
2019-05-25T08:45:20.626Z,19.86
2019-05-25T08:47:48.166Z,19.85
2019-05-25T08:50:15.604Z,19.84
2019-05-25T08:52:43.074Z,19.82
2019-05-25T08:55:10.611Z,19.81
2019-05-25T08:57:38.081Z,19.81
2019-05-25T09:00:05.697Z,19.82
2019-05-25T09:02:33.381Z,19.83
2019-05-25T09:05:00.851Z,19.83
2019-05-25T09:07:28.308Z,19.83
2019-05-25T09:09:55.925Z,19.83
2019-05-25T09:12:23.596Z,19.84
2019-05-25T09:14:51.037Z,19.83
2019-05-25T09:17:18.560Z,19.84
2019-05-25T09:19:46.018Z,19.85
2019-05-25T09:22:13.519Z,19.87
2019-05-25T09:24:41.072Z,19.88
2019-05-25T09:27:08.577Z,19.90
2019-05-25T09:29:36.077Z,19.89
2019-05-25T09:32:06.882Z,19.88
2019-05-25T09:34:33.132Z,19.91
2019-05-25T09:37:00.623Z,19.93
2019-05-25T09:39:28.149Z,19.94
2019-05-25T09:41:55.640Z,19.96
2019-05-25T09:44:23.166Z,19.97
2019-05-25T09:46:50.772Z,19.98
2019-05-25T09:49:18.323Z,19.98
2019-05-25T09:51:48.476Z,19.97
2019-05-25T09:54:15.141Z,19.98
2019-05-25T09:56:42.628Z,19.94
2019-05-25T09:59:19.775Z,19.94
2019-05-25T10:01:39.589Z,19.93
2019-05-25T10:04:07.076Z,19.93
2019-05-25T10:06:34.573Z,19.93
2019-05-25T10:09:02.049Z,19.93
2019-05-25T10:11:29.564Z,19.94
2019-05-25T10:13:57.073Z,19.95
2019-05-25T10:16:24.691Z,19.96
2019-05-25T10:18:52.522Z,19.95
2019-05-25T10:21:19.993Z,19.93
2019-05-25T10:23:47.529Z,19.93
2019-05-25T10:26:15.001Z,19.91
2019-05-25T10:28:42.507Z,19.90
2019-05-25T10:31:10.152Z,19.91
2019-05-25T10:33:37.616Z,19.92
2019-05-25T10:36:05.119Z,19.92
2019-05-25T10:38:32.573Z,19.92
2019-05-25T10:41:00.079Z,19.94
2019-05-25T10:43:27.671Z,19.97
2019-05-25T10:45:55.173Z,19.99
2019-05-25T10:48:22.658Z,20.01
2019-05-25T10:50:50.477Z,20.04
2019-05-25T10:53:18.070Z,20.09
2019-05-25T10:55:45.546Z,20.11
2019-05-25T10:58:13.063Z,20.14
2019-05-25T11:00:40.587Z,20.16
2019-05-25T11:03:08.060Z,20.18
2019-05-25T11:05:35.621Z,20.18
2019-05-25T11:08:03.155Z,20.21
2019-05-25T11:10:30.630Z,20.20
2019-05-25T11:12:58.093Z,20.21
2019-05-25T11:15:25.608Z,20.23
2019-05-25T11:17:53.072Z,20.24
2019-05-25T11:20:20.547Z,20.26
2019-05-25T11:22:48.016Z,20.27
2019-05-25T11:25:15.513Z,20.27
2019-05-25T11:27:43.055Z,20.28
2019-05-25T11:30:10.636Z,20.31
2019-05-25T11:32:38.360Z,20.31
2019-05-25T11:35:06.337Z,20.34
2019-05-25T11:37:33.791Z,20.36
2019-05-25T11:40:01.422Z,20.36
2019-05-25T11:42:28.909Z,20.36
2019-05-25T11:44:56.376Z,20.38
2019-05-25T11:47:23.975Z,20.39
2019-05-25T11:49:51.412Z,20.39
2019-05-25T11:52:18.882Z,20.41
2019-05-25T11:54:46.386Z,20.45
2019-05-25T11:57:13.873Z,20.47
2019-05-25T11:59:41.346Z,20.47
2019-05-25T12:02:08.841Z,20.47
2019-05-25T12:04:36.340Z,20.48
2019-05-25T12:07:03.783Z,20.48
2019-05-25T12:09:31.356Z,20.49
2019-05-25T12:11:58.883Z,20.50
2019-05-25T12:14:26.323Z,20.49
2019-05-25T12:16:53.842Z,20.49
2019-05-25T12:19:21.366Z,20.50
2019-05-25T12:21:48.826Z,20.50
2019-05-25T12:24:16.318Z,20.50
2019-05-25T12:26:43.771Z,20.49
2019-05-25T12:29:11.311Z,20.49
2019-05-25T12:31:38.768Z,20.49
2019-05-25T12:34:06.365Z,20.48
2019-05-25T12:36:33.840Z,20.48
2019-05-25T12:39:01.308Z,20.48
2019-05-25T12:41:28.983Z,20.49
2019-05-25T12:43:56.478Z,20.49
2019-05-25T12:46:23.953Z,20.50
2019-05-25T12:48:51.435Z,20.50
2019-05-25T12:51:19.025Z,20.52
2019-05-25T12:53:46.480Z,20.53
2019-05-25T12:56:13.985Z,20.55
2019-05-25T12:58:41.466Z,20.58
2019-05-25T13:01:08.983Z,20.58
2019-05-25T13:03:36.479Z,20.54
2019-05-25T13:06:03.999Z,20.51
2019-05-25T13:08:32.029Z,20.51
2019-05-25T13:10:59.511Z,20.54
2019-05-25T13:13:27.043Z,20.54
2019-05-25T13:15:54.600Z,20.50
2019-05-25T13:18:22.110Z,20.49
2019-05-25T13:20:49.643Z,20.47
2019-05-25T13:23:17.264Z,20.46
2019-05-25T13:25:44.803Z,20.45
2019-05-25T13:28:12.288Z,20.43
2019-05-25T13:30:39.938Z,20.44
2019-05-25T13:33:07.437Z,20.44
2019-05-25T13:35:34.925Z,20.43
2019-05-25T13:38:02.582Z,20.45
2019-05-25T13:40:30.067Z,20.45
2019-05-25T13:42:57.716Z,20.44
2019-05-25T13:45:25.223Z,20.44
2019-05-25T13:47:52.718Z,20.43
2019-05-25T13:50:20.389Z,20.42
2019-05-25T13:52:47.874Z,20.42
2019-05-25T13:55:15.359Z,20.42
2019-05-25T13:57:42.913Z,20.42
2019-05-25T14:00:10.663Z,20.42
2019-05-25T14:02:38.210Z,20.43
2019-05-25T14:05:05.775Z,20.44
2019-05-25T14:07:33.251Z,20.43
2019-05-25T14:10:00.768Z,20.42
2019-05-25T14:12:28.262Z,20.41
2019-05-25T14:14:55.779Z,20.43
2019-05-25T14:17:23.318Z,20.40
2019-05-25T14:19:50.983Z,20.40
2019-05-25T14:22:18.468Z,20.39
2019-05-25T14:24:46.067Z,20.38
2019-05-25T14:27:13.636Z,20.38
2019-05-25T14:29:41.187Z,20.37
2019-05-25T14:32:08.680Z,20.37
2019-05-25T14:34:37.029Z,20.36
2019-05-25T14:37:04.668Z,20.34
2019-05-25T14:39:32.153Z,20.34
2019-05-25T14:41:59.845Z,20.32
2019-05-25T14:44:27.348Z,20.30
2019-05-25T14:46:54.842Z,20.27
2019-05-25T14:49:22.484Z,20.29
2019-05-25T14:51:50.155Z,20.29
2019-05-25T14:54:17.631Z,20.29
2019-05-25T14:56:45.187Z,20.29
2019-05-25T14:59:12.808Z,20.29
2019-05-25T15:01:40.335Z,20.28
2019-05-25T15:04:07.839Z,20.27
2019-05-25T15:06:35.412Z,20.25
2019-05-25T15:09:03.704Z,20.25
2019-05-25T15:11:31.203Z,20.25
2019-05-25T15:13:58.664Z,20.26
2019-05-25T15:16:26.155Z,20.31
2019-05-25T15:18:53.683Z,20.42
2019-05-25T15:21:21.428Z,20.51
2019-05-25T15:23:48.943Z,20.57
2019-05-25T15:26:16.482Z,20.59
2019-05-25T15:28:43.971Z,20.58
2019-05-25T15:31:11.490Z,20.57
2019-05-25T15:33:38.970Z,20.59
2019-05-25T15:36:06.475Z,20.62
2019-05-25T15:38:34.101Z,20.67
2019-05-25T15:41:01.590Z,20.71
2019-05-25T15:43:29.102Z,20.76
2019-05-25T15:45:56.619Z,20.78
2019-05-25T15:48:26.211Z,20.81
2019-05-25T15:50:53.504Z,20.80
2019-05-25T15:53:20.986Z,20.80
2019-05-25T15:55:48.520Z,20.83
2019-05-25T15:58:15.971Z,20.86
2019-05-25T16:00:48.016Z,20.86
2019-05-25T16:03:16.449Z,20.84
2019-05-25T16:05:47.377Z,20.82
2019-05-25T16:08:13.441Z,20.81
2019-05-25T16:10:40.964Z,20.78
2019-05-25T16:13:08.503Z,20.77
2019-05-25T16:15:36.044Z,20.80
2019-05-25T16:18:03.546Z,20.86
2019-05-25T16:20:31.024Z,20.89
2019-05-25T16:22:58.533Z,20.91
2019-05-25T16:25:26.127Z,20.94
2019-05-25T16:27:53.701Z,20.94
2019-05-25T16:30:21.182Z,20.93
2019-05-25T16:35:18.137Z,20.90
2019-05-25T16:37:07.704Z,20.89
2019-05-25T16:37:46.022Z,20.92
2019-05-25T16:40:13.989Z,20.96
2019-05-25T16:42:41.503Z,21.00
2019-05-25T16:45:09.306Z,21.01
2019-05-25T16:47:36.779Z,20.98
2019-05-25T16:50:04.774Z,21.01
2019-05-25T16:52:32.257Z,21.04
2019-05-25T16:54:59.798Z,21.01
2019-05-25T16:57:27.410Z,20.97
2019-05-25T16:59:55.033Z,20.91
2019-05-25T17:02:22.530Z,20.83
2019-05-25T17:04:50.545Z,20.77
2019-05-25T17:07:18.036Z,20.71
2019-05-25T17:09:45.853Z,20.68
2019-05-25T17:12:13.362Z,20.63
2019-05-25T17:14:41.206Z,20.58
2019-05-25T17:17:09.046Z,20.55
2019-05-25T17:19:36.864Z,20.51
2019-05-25T17:22:04.389Z,20.47
2019-05-25T17:24:31.893Z,20.44
2019-05-25T17:26:59.446Z,20.40
2019-05-25T17:29:26.949Z,20.37
2019-05-25T17:31:54.868Z,20.33
2019-05-25T17:34:22.372Z,20.23
2019-05-25T17:36:49.874Z,20.28
2019-05-25T17:39:17.422Z,20.23
2019-05-25T17:41:44.989Z,20.23
2019-05-25T17:44:12.501Z,20.18
2019-05-25T17:46:40.025Z,20.17
2019-05-25T17:49:07.562Z,20.14
2019-05-25T17:51:35.055Z,20.13
2019-05-25T17:54:02.591Z,20.11
2019-05-25T17:56:30.130Z,20.08
2019-05-25T17:58:57.616Z,20.05
2019-05-25T18:01:25.110Z,20.03
2019-05-25T18:04:05.765Z,20.00
2019-05-25T18:06:22.286Z,19.96
2019-05-25T18:08:50.016Z,19.94
2019-05-25T18:11:17.672Z,19.91
2019-05-25T18:13:45.192Z,19.90
2019-05-25T18:16:12.715Z,19.87
2019-05-25T18:18:40.209Z,19.83
2019-05-25T18:21:07.754Z,19.82
2019-05-25T18:23:35.257Z,19.80
2019-05-25T18:26:02.813Z,19.77
2019-05-25T18:28:30.302Z,19.74
2019-05-25T18:30:57.805Z,19.72
2019-05-25T18:33:25.316Z,19.70
2019-05-25T18:35:52.834Z,19.67
2019-05-25T18:38:20.420Z,19.64
2019-05-25T18:40:47.975Z,19.62
2019-05-25T18:43:19.257Z,19.61
2019-05-25T18:45:46.770Z,19.58
2019-05-25T18:48:14.279Z,19.56
2019-05-25T18:50:42.170Z,19.53
2019-05-25T18:53:09.731Z,19.51
2019-05-25T18:55:37.272Z,19.50
2019-05-25T18:58:04.895Z,19.47
2019-05-25T19:00:32.444Z,19.47
2019-05-25T19:02:59.984Z,19.45
2019-05-25T19:05:27.506Z,19.42
2019-05-25T19:07:54.990Z,19.41
2019-05-25T19:10:22.507Z,19.40
2019-05-25T19:12:49.993Z,19.38
2019-05-25T19:15:17.552Z,19.37
2019-05-25T19:17:45.083Z,19.35
2019-05-25T19:20:12.661Z,19.33
2019-05-25T19:22:40.380Z,19.32
2019-05-25T19:25:07.972Z,19.29
2019-05-25T19:27:35.634Z,19.28
2019-05-25T19:30:08.518Z,19.26
2019-05-25T19:32:36.261Z,19.23
2019-05-25T19:35:03.954Z,19.23
2019-05-25T19:37:31.604Z,19.21
2019-05-25T19:39:59.185Z,19.21
2019-05-25T19:42:26.658Z,19.19
2019-05-25T19:44:54.177Z,19.16
2019-05-25T19:47:21.812Z,19.14
2019-05-25T19:49:49.339Z,19.14
2019-05-25T19:52:16.849Z,19.12
2019-05-25T19:54:44.390Z,19.11
2019-05-25T19:57:11.890Z,19.10
2019-05-25T19:59:39.705Z,19.09
2019-05-25T20:02:07.222Z,19.09
2019-05-25T20:04:34.748Z,19.08
2019-05-25T20:07:02.257Z,19.07
2019-05-25T20:09:29.779Z,19.05
2019-05-25T20:11:57.459Z,19.02
2019-05-25T20:14:24.986Z,19.02
2019-05-25T20:16:52.566Z,19.01
2019-05-25T20:19:20.052Z,18.99
2019-05-25T20:21:47.840Z,18.98
2019-05-25T20:24:15.423Z,18.96
2019-05-25T20:26:42.955Z,18.96
2019-05-25T20:29:10.454Z,18.95
2019-05-25T20:31:38.110Z,18.93
2019-05-25T20:34:05.625Z,18.91
2019-05-25T20:36:33.236Z,18.91
2019-05-25T20:39:00.780Z,18.90
2019-05-25T20:41:28.426Z,18.88
2019-05-25T20:43:55.955Z,18.87
2019-05-25T20:46:23.459Z,18.86
2019-05-25T20:48:50.998Z,18.84
2019-05-25T20:51:18.614Z,18.81
2019-05-25T20:53:46.799Z,18.80
2019-05-25T20:56:14.665Z,18.78
2019-05-25T20:58:47.745Z,18.77
2019-05-25T21:01:15.239Z,18.76
2019-05-25T21:03:42.774Z,18.75
2019-05-25T21:06:10.246Z,18.74
2019-05-25T21:08:37.769Z,18.73
2019-05-25T21:11:05.382Z,18.72
2019-05-25T21:13:32.853Z,18.70
2019-05-25T21:16:00.372Z,18.68
2019-05-25T21:18:27.972Z,18.66
2019-05-25T21:20:55.481Z,18.65
2019-05-25T21:23:22.993Z,18.63
2019-05-25T21:25:50.488Z,18.63
2019-05-25T21:28:17.987Z,18.62
2019-05-25T21:30:47.932Z,18.60
2019-05-25T21:33:15.437Z,18.59
2019-05-25T21:35:42.976Z,18.58
2019-05-25T21:38:10.528Z,18.57
2019-05-25T21:40:37.970Z,18.56
2019-05-25T21:43:05.572Z,18.55
2019-05-25T21:45:33.072Z,18.54
2019-05-25T21:48:00.538Z,18.53
2019-05-25T21:50:28.040Z,18.53
2019-05-25T21:52:55.548Z,18.51
2019-05-25T21:55:23.051Z,18.50
2019-05-25T21:57:50.514Z,18.49
2019-05-25T22:00:21.057Z,18.49
2019-05-25T22:02:48.812Z,18.47
2019-05-25T22:05:16.283Z,18.46
2019-05-25T22:07:43.843Z,18.44
2019-05-25T22:10:11.401Z,18.43
2019-05-25T22:12:40.468Z,18.42
2019-05-25T22:15:09.792Z,18.39
2019-05-25T22:17:37.773Z,18.38
2019-05-25T22:20:05.294Z,18.37
2019-05-25T22:22:32.743Z,18.34
2019-05-25T22:25:00.254Z,18.32
2019-05-25T22:27:27.830Z,18.32
2019-05-25T22:29:55.459Z,18.30
2019-05-25T22:32:22.949Z,18.29
2019-05-25T22:34:50.534Z,18.29
2019-05-25T22:37:18.048Z,18.27
2019-05-25T22:39:45.521Z,18.24
2019-05-25T22:42:12.994Z,18.24
2019-05-25T22:44:40.584Z,18.22
2019-05-25T22:47:08.131Z,18.21
2019-05-25T22:49:35.663Z,18.21
2019-05-25T22:52:03.357Z,18.18
2019-05-25T22:54:30.847Z,18.17
2019-05-25T22:56:58.450Z,18.15
2019-05-25T22:59:26.056Z,18.15
2019-05-25T23:01:53.547Z,18.15
2019-05-25T23:04:21.019Z,18.13
2019-05-25T23:06:57.974Z,18.12
2019-05-25T23:09:18.050Z,18.11
2019-05-25T23:11:45.512Z,18.11
2019-05-25T23:14:13.005Z,18.09
2019-05-25T23:16:40.584Z,18.09
2019-05-25T23:19:08.183Z,18.08
2019-05-25T23:21:35.647Z,18.09
2019-05-25T23:24:03.105Z,18.08
2019-05-25T23:26:30.611Z,18.06
2019-05-25T23:28:58.145Z,18.03
2019-05-25T23:31:25.647Z,18.03
2019-05-25T23:33:53.106Z,18.02
2019-05-25T23:36:20.718Z,18.00
2019-05-25T23:38:48.175Z,18.01
2019-05-25T23:41:15.680Z,17.99
2019-05-25T23:43:43.169Z,18.00
2019-05-25T23:46:10.638Z,17.98
2019-05-25T23:48:38.186Z,17.96
2019-05-25T23:51:05.769Z,17.97
2019-05-25T23:53:33.262Z,17.97
2019-05-25T23:56:00.723Z,17.93
2019-05-25T23:58:28.318Z,17.93
